Time;durP1;ratioP1;P1;durP2;ratioP2;P2;SDS_P1;SDS_P2;PMS_P1;PMS_P2;Temp;Humidity;BMP_temperature;BMP_pressure;BME280_temperature;BME280_humidity;BME280_pressure;Samples;Min_cycle;Max_cycle;Signal;HPM_P1;HPM_P2
2022/05/27 00:01:29;;;;;;;24.55;6.38;;;;;;;11.76;100.00;100774.84;4972943;28;20496;-72
2022/05/27 00:03:56;;;;;;;20.65;5.97;;;;;;;11.77;100.00;100789.88;4972589;28;20058;-75
2022/05/27 00:06:22;;;;;;;12.73;6.15;;;;;;;11.65;100.00;100792.06;4954665;28;20022;-74
2022/05/27 00:08:48;;;;;;;21.02;5.93;;;;;;;11.70;100.00;100787.03;4959804;28;20043;-72
2022/05/27 00:11:13;;;;;;;24.38;6.95;;;;;;;11.66;100.00;100783.06;4963326;28;20023;-73
2022/05/27 00:13:40;;;;;;;15.53;6.83;;;;;;;11.69;100.00;100780.03;4955420;28;20098;-75
2022/05/27 00:16:05;;;;;;;26.25;7.30;;;;;;;11.60;100.00;100783.72;4957558;28;20102;-73
2022/05/27 00:18:31;;;;;;;16.90;6.30;;;;;;;11.53;100.00;100764.84;4971164;28;20125;-75
2022/05/27 00:20:58;;;;;;;26.77;7.63;;;;;;;11.54;100.00;100761.19;4957383;28;20671;-74
2022/05/27 00:23:23;;;;;;;17.38;6.50;;;;;;;11.60;100.00;100759.66;4970212;28;20070;-74
2022/05/27 00:25:48;;;;;;;19.83;5.63;;;;;;;11.45;100.00;100738.13;4955354;28;20062;-73
2022/05/27 00:28:14;;;;;;;22.17;5.40;;;;;;;11.35;100.00;100732.94;4972953;28;20041;-72
2022/05/27 00:30:41;;;;;;;21.83;7.97;;;;;;;11.35;100.00;100743.63;4956352;28;20035;-72
2022/05/27 00:33:06;;;;;;;28.35;6.57;;;;;;;11.38;100.00;100740.63;4965399;28;20038;-74
2022/05/27 00:35:33;;;;;;;22.60;5.20;;;;;;;11.34;100.00;100741.13;4952827;28;20042;-75
2022/05/27 00:37:58;;;;;;;21.30;6.68;;;;;;;11.39;100.00;100755.66;4959282;28;20030;-72
2022/05/27 00:40:26;;;;;;;23.23;5.63;;;;;;;11.29;100.00;100746.16;4956084;28;20072;-74
2022/05/27 00:42:52;;;;;;;20.42;5.68;;;;;;;11.31;100.00;100758.34;4974516;28;20500;-74
2022/05/27 00:45:23;;;;;;;22.13;6.50;;;;;;;11.27;100.00;100759.66;4959955;28;20019;-72
2022/05/27 00:47:53;;;;;;;29.30;7.55;;;;;;;11.29;100.00;100755.00;4966464;28;20101;-74
2022/05/27 00:50:23;;;;;;;31.13;8.27;;;;;;;11.33;100.00;100759.03;4959238;28;20507;-74
2022/05/27 00:52:49;;;;;;;15.43;5.88;;;;;;;11.30;100.00;100763.84;4966102;28;20034;-72
2022/05/27 00:55:20;;;;;;;20.20;6.75;;;;;;;11.38;100.00;100769.22;4942868;28;20030;-74
2022/05/27 00:58:08;;;;;;;22.13;6.55;;;;;;;11.37;100.00;100773.69;4948222;28;20039;-74
2022/05/27 01:00:33;;;;;;;22.15;6.45;;;;;;;11.39;100.00;100760.16;4961631;28;20098;-73
2022/05/27 01:03:00;;;;;;;35.07;6.87;;;;;;;11.34;100.00;100763.34;4976354;28;20023;-72
2022/05/27 01:05:25;;;;;;;18.02;5.85;;;;;;;11.33;100.00;100752.81;4954710;28;20098;-74
2022/05/27 01:07:55;;;;;;;22.47;5.63;;;;;;;11.36;100.00;100761.34;4958329;28;20425;-74
2022/05/27 01:10:21;;;;;;;30.17;6.22;;;;;;;11.33;100.00;100756.34;4953926;28;20035;-74
2022/05/27 01:12:59;;;;;;;;;;;;;;;11.29;100.00;100760.34;4956358;28;20023;-72
2022/05/27 01:15:49;;;;;;;16.63;5.07;;;;;;;11.24;100.00;100760.00;4957263;28;19919;-74
2022/05/27 01:18:24;;;;;;;13.65;4.80;;;;;;;11.21;100.00;100754.97;4968958;28;20027;-74
2022/05/27 01:21:06;;;;;;;16.50;4.60;;;;;;;11.22;100.00;100758.50;4972392;28;20409;-74
2022/05/27 01:23:56;;;;;;;17.48;3.78;;;;;;;11.20;100.00;100766.69;4973822;28;20053;-72
2022/05/27 01:26:27;;;;;;;19.33;4.75;;;;;;;11.25;100.00;100753.66;4972937;28;20039;-73
2022/05/27 01:29:31;;;;;;;15.13;4.45;;;;;;;11.21;100.00;100730.94;4976232;28;20039;-74
2022/05/27 01:32:03;;;;;;;15.35;4.03;;;;;;;11.23;100.00;100742.28;4935389;28;20567;-73
2022/05/27 01:34:29;;;;;;;17.77;5.60;;;;;;;11.23;100.00;100736.94;4916482;29;20090;-73
2022/05/27 01:37:16;;;;;;;13.95;3.78;;;;;;;11.18;100.00;100736.63;4948919;28;20054;-73
2022/05/27 01:39:48;;;;;;;19.30;3.47;;;;;;;11.19;100.00;100727.59;4961897;28;20043;-73
2022/05/27 01:42:30;;;;;;;21.95;4.15;;;;;;;11.19;100.00;100724.91;4959173;28;20039;-73
2022/05/27 01:44:58;;;;;;;15.90;3.58;;;;;;;11.20;100.00;100729.28;4962442;28;20074;-74
2022/05/27 01:47:32;;;;;;;18.92;4.47;;;;;;;11.20;100.00;100721.25;4963002;28;20027;-73
2022/05/27 01:50:26;;;;;;;15.07;4.03;;;;;;;11.11;100.00;100730.28;4964643;28;20031;-72
2022/05/27 01:53:01;;;;;;;19.10;4.18;;;;;;;11.01;100.00;100733.09;4960536;28;20043;-73
2022/05/27 01:55:42;;;;;;;14.98;3.67;;;;;;;11.04;100.00;100731.94;4976752;28;20038;-74
2022/05/27 01:58:15;;;;;;;20.30;5.45;;;;;;;11.09;100.00;100750.97;4957794;28;20285;-73
2022/05/27 02:00:44;;;;;;;13.00;3.20;;;;;;;10.95;100.00;100747.94;4960622;28;20784;-71
2022/05/27 02:03:21;;;;;;;13.90;3.53;;;;;;;10.99;100.00;100749.28;4963531;28;20025;-73
2022/05/27 02:05:50;;;;;;;23.10;3.70;;;;;;;11.02;100.00;100752.63;4958509;28;20039;-73
2022/05/27 02:08:23;;;;;;;12.93;3.95;;;;;;;10.96;100.00;100736.28;4960807;28;20054;-71
2022/05/27 02:11:00;;;;;;;24.17;4.25;;;;;;;10.94;100.00;100754.28;4964226;28;20102;-72
2022/05/27 02:13:36;;;;;;;29.70;6.32;;;;;;;10.91;100.00;100759.97;4960267;28;20062;-72
2022/05/27 02:16:03;;;;;;;17.13;3.20;;;;;;;10.92;100.00;100726.91;4957377;28;20767;-73
2022/05/27 02:18:34;;;;;;;19.85;4.32;;;;;;;10.78;100.00;100751.59;4958843;28;20031;-74
2022/05/27 02:21:06;;;;;;;25.77;4.22;;;;;;;10.77;100.00;100749.94;4965403;28;20019;-73
2022/05/27 02:23:37;;;;;;;16.33;3.55;;;;;;;10.78;100.00;100768.44;4962396;28;20126;-73
2022/05/27 02:26:08;;;;;;;17.75;3.33;;;;;;;10.81;100.00;100758.44;4957259;28;20031;-75
2022/05/27 02:28:42;;;;;;;14.65;3.65;;;;;;;10.74;100.00;100745.72;4975058;28;20035;-74
2022/05/27 02:31:14;;;;;;;21.55;3.58;;;;;;;10.80;100.00;100760.28;4965338;28;20440;-74
2022/05/27 02:36:38;;;;;;;17.52;3.72;;;;;;;10.69;100.00;100764.09;4970892;28;20061;-73
2022/05/27 02:39:05;;;;;;;14.93;3.65;;;;;;;10.57;100.00;100758.22;4956208;28;20111;-73
2022/05/27 02:41:37;;;;;;;29.63;4.20;;;;;;;10.55;100.00;100776.22;4958173;28;20027;-73
2022/05/27 02:44:08;;;;;;;20.02;4.07;;;;;;;10.52;100.00;100781.06;4941902;28;20130;-73
2022/05/27 02:47:06;;;;;;;20.35;3.45;;;;;;;10.46;100.00;100779.03;4959863;28;20042;-73
2022/05/27 02:49:46;;;;;;;14.95;2.90;;;;;;;10.37;100.00;100779.97;4919630;28;20055;-73
2022/05/27 02:52:23;;;;;;;24.02;4.50;;;;;;;10.34;100.00;100786.47;4958192;28;20035;-73
2022/05/27 02:55:06;;;;;;;21.00;3.53;;;;;;;10.27;100.00;100785.41;4973008;28;20125;-73
2022/05/27 02:58:02;;;;;;;21.15;4.80;;;;;;;10.26;100.00;100783.75;4959522;28;20039;-73
2022/05/27 03:00:29;;;;;;;;;;;;;;;10.22;100.00;100782.41;4956647;28;20089;-73
2022/05/27 03:02:59;;;;;;;11.52;3.92;;;;;;;10.18;100.00;100775.69;4958337;28;20352;-73
2022/05/27 03:05:41;;;;;;;16.48;4.70;;;;;;;10.21;100.00;100780.72;4961939;28;20046;-73
2022/05/27 03:08:17;;;;;;;14.68;3.10;;;;;;;10.15;100.00;100780.34;4960156;28;20039;-73
2022/05/27 03:11:03;;;;;;;19.08;2.80;;;;;;;9.99;100.00;100772.25;4972198;28;20094;-73
2022/05/27 03:14:10;;;;;;;20.17;3.40;;;;;;;9.95;100.00;100792.25;4958242;28;20393;-73
2022/05/27 03:17:09;;;;;;;8.65;2.20;;;;;;;9.99;100.00;100777.59;4944679;28;20519;-73
2022/05/27 03:20:08;;;;;;;13.70;3.40;;;;;;;9.95;100.00;100778.94;4945089;28;20425;-73
2022/05/27 03:22:58;;;;;;;20.88;3.38;;;;;;;9.96;100.00;100771.75;4959260;28;20461;-73
2022/05/27 03:25:35;;;;;;;14.80;3.10;;;;;;;9.89;100.00;100760.88;4956450;28;20046;-73
2022/05/27 03:28:23;;;;;;;20.13;3.15;;;;;;;9.78;100.00;100766.47;4962200;28;20069;-73
2022/05/27 03:31:10;;;;;;;14.10;2.97;;;;;;;9.79;100.00;100770.81;4975762;28;20285;-73
2022/05/27 03:33:42;;;;;;;17.05;3.25;;;;;;;9.81;100.00;100772.34;4956444;28;20049;-73
2022/05/27 03:36:19;;;;;;;19.25;3.00;;;;;;;9.79;100.00;100776.16;4963601;28;20548;-73
2022/05/27 03:38:58;;;;;;;13.15;2.38;;;;;;;9.79;100.00;100782.31;4955602;28;20485;-73
2022/05/27 03:41:33;;;;;;;9.27;2.40;;;;;;;9.79;100.00;100781.50;4977877;28;20043;-73
2022/05/27 03:43:59;;;;;;;11.90;2.08;;;;;;;9.68;100.00;100779.91;4962625;28;20085;-73
2022/05/27 03:46:36;;;;;;;14.30;2.97;;;;;;;9.73;100.00;100798.94;4960389;28;20031;-73
2022/05/27 03:49:04;;;;;;;15.00;2.80;;;;;;;9.70;100.00;100804.59;4971218;28;20050;-73
2022/05/27 03:51:34;;;;;;;13.55;3.50;;;;;;;9.84;100.00;100811.19;4977472;28;20023;-72
2022/05/27 03:54:05;;;;;;;13.05;2.75;;;;;;;9.81;100.00;100806.13;4965118;28;20437;-73
2022/05/27 03:56:42;;;;;;;11.95;2.55;;;;;;;9.85;100.00;100805.69;4956788;28;20118;-73
2022/05/27 03:59:12;;;;;;;18.55;3.13;;;;;;;9.87;100.00;100826.88;4956448;28;20392;-73
2022/05/27 04:01:41;;;;;;;13.77;2.97;;;;;;;9.85;100.00;100815.50;4960886;28;20480;-73
2022/05/27 04:04:10;;;;;;;14.25;2.70;;;;;;;9.89;100.00;100828.38;4966336;28;20439;-73
2022/05/27 04:06:35;;;;;;;15.63;3.72;;;;;;;9.90;100.00;100813.22;4953703;28;20035;-73
2022/05/27 04:09:01;;;;;;;17.25;3.47;;;;;;;10.01;100.00;100812.94;4961426;28;20042;-73
2022/05/27 04:11:30;;;;;;;19.93;3.47;;;;;;;10.03;100.00;100786.13;4953675;28;20039;-73
2022/05/27 04:13:56;;;;;;;9.43;2.50;;;;;;;9.98;100.00;100807.94;4964716;28;20113;-72
2022/05/27 04:16:22;;;;;;;11.70;3.42;;;;;;;9.95;100.00;100794.94;4966841;28;20019;-73
2022/05/27 04:18:47;;;;;;;13.88;3.25;;;;;;;9.86;100.00;100814.53;4966729;28;20076;-73
2022/05/27 04:21:13;;;;;;;17.17;3.10;;;;;;;9.81;100.00;100820.34;4965001;28;20023;-73
2022/05/27 04:23:38;;;;;;;21.20;3.47;;;;;;;9.80;100.00;100839.97;4957731;28;20412;-73
2022/05/27 04:26:04;;;;;;;11.47;3.07;;;;;;;9.80;100.00;100831.16;4964915;28;20286;-73
2022/05/27 04:28:30;;;;;;;19.48;3.33;;;;;;;9.79;100.00;100834.81;4969492;28;20117;-73
2022/05/27 04:30:56;;;;;;;18.00;3.40;;;;;;;9.79;100.00;100840.97;4968134;28;20505;-73
2022/05/27 04:33:21;;;;;;;15.17;4.43;;;;;;;9.85;100.00;100843.00;4943457;28;20032;-73
2022/05/27 04:35:47;;;;;;;11.07;2.70;;;;;;;9.85;100.00;100828.84;4957108;28;20027;-73
2022/05/27 04:38:12;;;;;;;19.98;3.72;;;;;;;9.91;100.00;100833.56;4956406;28;20031;-73
2022/05/27 04:40:38;;;;;;;12.38;3.22;;;;;;;10.01;100.00;100825.47;4953691;28;20125;-73
2022/05/27 04:43:04;;;;;;;17.53;4.17;;;;;;;10.14;100.00;100818.72;4972762;28;20066;-73
2022/05/27 04:45:30;;;;;;;23.13;3.85;;;;;;;10.32;100.00;100823.16;4979441;28;20294;-73
2022/05/27 04:47:55;;;;;;;22.17;3.08;;;;;;;10.34;100.00;100802.50;4959463;28;20053;-73
2022/05/27 04:50:21;;;;;;;21.13;3.70;;;;;;;10.46;100.00;100808.38;4957472;28;20031;-73
2022/05/27 04:52:47;;;;;;;16.88;3.17;;;;;;;10.50;100.00;100793.72;4954449;28;20043;-73
2022/05/27 04:55:16;;;;;;;19.73;3.63;;;;;;;10.70;100.00;100792.47;4973436;28;20034;-73
2022/05/27 04:57:50;;;;;;;14.68;4.20;;;;;;;10.86;100.00;100790.84;4958454;28;20066;-73
2022/05/27 05:00:32;;;;;;;25.83;2.90;;;;;;;11.01;100.00;100772.34;4968438;28;20045;-73
2022/05/27 05:02:58;;;;;;;15.13;3.10;;;;;;;11.03;100.00;100740.94;4985152;28;20038;-73
2022/05/27 05:05:26;;;;;;;18.73;3.33;;;;;;;11.12;100.00;100735.47;4969237;28;20680;-73
2022/05/27 05:07:57;;;;;;;26.08;3.97;;;;;;;11.24;100.00;100733.28;4968981;28;20481;-73
2022/05/27 05:10:23;;;;;;;16.45;3.38;;;;;;;11.55;100.00;100732.59;4970368;28;20034;-73
2022/05/27 05:12:49;;;;;;;17.83;3.22;;;;;;;11.74;100.00;100742.09;4969962;28;20041;-73
2022/05/27 05:15:15;;;;;;;;;;;;;;;11.71;100.00;100702.31;4970568;28;20022;-73
2022/05/27 05:17:41;;;;;;;24.30;3.58;;;;;;;11.67;100.00;100693.78;4969997;28;19970;-73
2022/05/27 05:20:08;;;;;;;15.75;2.92;;;;;;;11.93;100.00;100706.94;4968791;28;20042;-73
2022/05/27 05:22:33;;;;;;;16.77;3.97;;;;;;;11.93;100.00;100682.03;4976531;28;20038;-73
2022/05/27 05:24:59;;;;;;;18.10;3.63;;;;;;;12.34;100.00;100668.47;4989444;28;20052;-73
2022/05/27 05:27:26;;;;;;;23.00;4.13;;;;;;;12.82;100.00;100666.50;4988314;28;20058;-73
2022/05/27 05:29:53;;;;;;;16.88;2.80;;;;;;;13.29;100.00;100642.16;4969400;28;20295;-73
2022/05/27 05:32:19;;;;;;;14.55;3.45;;;;;;;13.88;100.00;100576.09;4966002;28;20532;-73
2022/05/27 05:34:44;;;;;;;17.92;3.03;;;;;;;14.36;100.00;100523.53;4973734;28;20035;-73
2022/05/27 05:37:10;;;;;;;11.40;2.20;;;;;;;15.31;100.00;100475.63;4970762;28;20554;-73
2022/05/27 05:39:36;;;;;;;16.57;3.40;;;;;;;15.35;100.00;100428.47;4957702;28;20046;-73
2022/05/27 05:42:03;;;;;;;;;;;;;;;15.73;100.00;100387.63;4967622;28;20121;-73
2022/05/27 05:44:30;;;;;;;9.23;2.88;;;;;;;15.75;100.00;100301.28;4965479;28;19925;-73
2022/05/27 05:46:55;;;;;;;13.77;2.72;;;;;;;15.54;100.00;100251.97;4967648;28;20117;-74
2022/05/27 05:49:21;;;;;;;13.93;2.95;;;;;;;15.33;100.00;100262.94;4961936;28;20464;-73
2022/05/27 05:51:46;;;;;;;17.07;3.40;;;;;;;16.16;100.00;100387.22;4961075;28;20027;-72
2022/05/27 05:54:12;;;;;;;13.47;3.63;;;;;;;16.35;100.00;100409.78;4959278;28;20039;-74
2022/05/27 05:56:37;;;;;;;15.30;2.73;;;;;;;15.68;98.13;100249.28;4960149;28;20023;-74
2022/05/27 05:59:03;;;;;;;15.70;2.85;;;;;;;15.30;100.00;100274.13;4975340;28;20361;-73
2022/05/27 06:01:29;;;;;;;21.15;3.78;;;;;;;16.21;98.57;100373.97;4957409;28;20477;-73
2022/05/27 06:03:54;;;;;;;18.33;3.10;;;;;;;16.29;97.81;100364.00;4961570;28;20037;-74
2022/05/27 06:06:20;;;;;;;19.27;4.23;;;;;;;15.73;98.16;100290.75;4962312;28;20452;-74
2022/05/27 06:08:45;;;;;;;14.85;3.15;;;;;;;16.19;96.59;100332.13;4975120;28;20039;-72
2022/05/27 06:11:11;;;;;;;18.73;3.73;;;;;;;16.37;93.31;100307.22;4966679;28;20027;-72
2022/05/27 06:13:36;;;;;;;13.53;2.70;;;;;;;15.57;92.44;100184.31;4972191;28;20038;-74
2022/05/27 06:16:03;;;;;;;17.97;2.93;;;;;;;15.16;100.00;100338.63;4961908;28;20062;-73
2022/05/27 06:18:29;;;;;;;17.65;3.75;;;;;;;14.77;100.00;100364.34;4956739;28;20058;-74
2022/05/27 06:20:54;;;;;;;21.08;3.90;;;;;;;14.75;100.00;100397.81;4959059;28;21950;-74
2022/05/27 06:23:21;;;;;;;15.97;3.27;;;;;;;14.06;100.00;100390.47;4958022;28;20034;-74
2022/05/27 06:25:53;;;;;;;12.95;3.00;;;;;;;13.66;100.00;100467.91;4973054;28;20038;-74
2022/05/27 06:36:31;;;;;;;21.23;3.22;;;;;;;14.22;100.00;100505.63;4956864;28;20035;-72
2022/05/27 06:38:57;;;;;;;16.52;2.72;;;;;;;14.10;100.00;100461.53;4978455;28;20046;-74
2022/05/27 06:41:22;;;;;;;13.50;3.23;;;;;;;15.47;100.00;100506.72;4949201;28;20497;-73
2022/05/27 06:43:47;;;;;;;21.67;4.57;;;;;;;15.03;100.00;100370.00;4959713;28;20035;-74
2022/05/27 06:46:13;;;;;;;12.37;2.27;;;;;;;15.33;100.00;100397.41;4965455;28;20551;-74
2022/05/27 06:48:38;;;;;;;15.38;4.35;;;;;;;14.42;100.00;100408.28;4971662;28;20031;-73
2022/05/27 06:51:06;;;;;;;15.20;3.70;;;;;;;13.44;100.00;100424.97;4965991;28;20046;-72
2022/05/27 06:53:31;;;;;;;14.35;2.55;;;;;;;14.51;100.00;100544.13;4959707;28;20031;-73
2022/05/27 06:55:57;;;;;;;14.13;3.00;;;;;;;14.80;100.00;100429.44;4973401;28;20027;-73
2022/05/27 06:58:22;;;;;;;15.17;3.17;;;;;;;15.52;95.53;100320.47;4957777;28;20073;-73
2022/05/27 07:00:47;;;;;;;16.73;3.53;;;;;;;14.48;100.00;100283.97;4960177;28;20035;-74
2022/05/27 07:03:13;;;;;;;16.40;4.17;;;;;;;13.69;100.00;100216.19;4965116;28;20543;-74
2022/05/27 07:05:38;;;;;;;14.80;2.97;;;;;;;14.38;99.07;100283.50;4956372;28;20481;-73
2022/05/27 07:08:05;;;;;;;17.45;3.45;;;;;;;14.70;90.58;100188.81;4950109;28;20109;-74
2022/05/27 07:10:31;;;;;;;13.30;3.35;;;;;;;15.38;85.47;100185.16;4958452;28;20042;-72
2022/05/27 07:12:59;;;;;;;15.45;2.67;;;;;;;15.17;86.11;100173.59;4960902;28;20506;-73
2022/05/27 07:15:25;;;;;;;11.52;2.63;;;;;;;15.29;90.11;100280.50;4961688;28;20467;-74
2022/05/27 07:17:51;;;;;;;13.48;3.40;;;;;;;15.25;86.30;100195.94;4957892;28;20031;-72
2022/05/27 07:20:16;;;;;;;12.00;2.80;;;;;;;14.54;93.42;100232.19;4957277;28;20496;-73
2022/05/27 07:22:43;;;;;;;11.95;2.50;;;;;;;14.40;96.48;100262.63;4958452;28;20038;-74
2022/05/27 07:25:13;;;;;;;14.73;3.25;;;;;;;13.62;100.00;100265.44;4949220;28;20043;-74
2022/05/27 07:27:39;;;;;;;17.65;3.60;;;;;;;13.33;100.00;100381.72;4956161;28;20131;-74
2022/05/27 07:30:05;;;;;;;14.02;3.13;;;;;;;12.57;100.00;100395.34;4965594;28;20049;-74
2022/05/27 07:32:35;;;;;;;18.05;3.25;;;;;;;12.56;100.00;100560.56;4953963;28;20575;-72
2022/05/27 07:35:02;;;;;;;16.65;2.92;;;;;;;12.63;100.00;100572.22;4975610;28;20034;-72
2022/05/27 07:37:28;;;;;;;13.35;2.20;;;;;;;13.93;100.00;100614.78;4961446;28;20417;-73
2022/05/27 07:39:53;;;;;;;16.33;3.27;;;;;;;14.36;100.00;100413.44;4958373;28;20170;-73
2022/05/27 07:42:18;;;;;;;14.27;2.67;;;;;;;14.81;97.08;100340.56;4942885;28;20034;-74
2022/05/27 07:44:44;;;;;;;9.27;2.77;;;;;;;15.17;93.24;100305.34;4973216;28;20048;-74
2022/05/27 07:47:09;;;;;;;11.53;3.37;;;;;;;15.78;90.85;100357.38;4957994;28;20380;-73
2022/05/27 07:49:34;;;;;;;16.80;2.90;;;;;;;16.41;85.78;100344.31;4956802;28;21193;-72
2022/05/27 07:52:01;;;;;;;9.07;2.47;;;;;;;16.17;80.02;100161.81;4958105;28;20030;-74
2022/05/27 07:54:27;;;;;;;15.18;2.83;;;;;;;15.95;76.05;100094.00;4954197;28;20110;-74
2022/05/27 07:56:52;;;;;;;11.97;2.40;;;;;;;16.15;74.75;100115.44;4974364;28;20031;-74
2022/05/27 07:59:18;;;;;;;16.37;2.47;;;;;;;16.53;72.23;100106.50;4971202;28;20030;-74
2022/05/27 08:01:44;;;;;;;9.07;2.60;;;;;;;16.97;74.40;100229.63;4970759;28;20424;-74
2022/05/27 08:04:09;;;;;;;18.63;3.50;;;;;;;15.98;67.57;99876.31;4950300;28;20038;-74
2022/05/27 08:06:35;;;;;;;17.30;2.20;;;;;;;14.75;81.64;100089.63;4969839;28;20157;-74
2022/05/27 08:09:01;;;;;;;5.22;2.03;;;;;;;12.56;99.66;100168.78;4969332;28;20331;-72
2022/05/27 08:11:26;;;;;;;10.63;1.67;;;;;;;11.99;100.00;100350.44;4961751;28;20093;-74
2022/05/27 08:13:52;;;;;;;7.97;1.80;;;;;;;12.65;100.00;100668.47;4962103;28;20042;-74
2022/05/27 08:16:17;;;;;;;5.97;1.70;;;;;;;13.86;100.00;100726.56;4956664;28;20073;-73
2022/05/27 08:18:42;;;;;;;6.03;1.73;;;;;;;13.86;100.00;100583.50;4972649;28;20035;-73
2022/05/27 08:21:08;;;;;;;10.87;2.03;;;;;;;13.02;100.00;100501.53;4948038;28;20030;-74
2022/05/27 08:23:33;;;;;;;8.53;1.40;;;;;;;12.06;100.00;100421.94;4957441;28;20039;-73
2022/05/27 08:25:58;;;;;;;7.03;1.53;;;;;;;11.18;100.00;100502.28;4974585;28;20030;-73
2022/05/27 08:28:24;;;;;;;2.57;1.00;;;;;;;9.99;100.00;100670.09;4960312;28;20054;-72
2022/05/27 08:30:51;;;;;;;5.40;0.70;;;;;;;9.95;100.00;100776.25;4956414;28;20702;-71
2022/05/27 08:33:17;;;;;;;9.15;2.22;;;;;;;9.80;100.00;100809.81;4958556;28;20493;-70
2022/05/27 08:38:32;;;;;;;9.75;1.73;;;;;;;10.68;100.00;100857.72;4958480;28;20046;-71
2022/05/27 08:41:19;;;;;;;10.98;1.77;;;;;;;11.94;100.00;100828.19;4957898;28;20117;-71
2022/05/27 08:43:59;;;;;;;5.70;1.48;;;;;;;13.24;100.00;100836.72;4957717;28;20039;-73
2022/05/27 08:46:33;;;;;;;8.98;1.83;;;;;;;14.01;100.00;100758.78;4958358;28;20152;-72
2022/05/27 08:49:05;;;;;;;10.75;2.25;;;;;;;14.70;100.00;100712.78;4982837;28;20041;-73
2022/05/27 08:51:39;;;;;;;9.23;2.20;;;;;;;15.19;100.00;100628.66;4956487;28;20043;-71
2022/05/27 08:54:15;;;;;;;10.27;3.30;;;;;;;15.56;100.00;100547.75;4978121;28;20030;-73
2022/05/27 08:59:31;;;;;;;11.35;3.45;;;;;;;15.73;100.00;100317.66;4961847;28;19918;-72
2022/05/27 09:02:23;;;;;;;15.07;2.35;;;;;;;16.23;100.00;100457.25;4971570;28;20041;-73
2022/05/27 09:04:54;;;;;;;12.38;3.30;;;;;;;17.23;100.00;100520.00;4956351;28;20039;-73
2022/05/27 09:07:30;;;;;;;10.20;2.35;;;;;;;17.12;99.01;100358.81;4960177;28;20031;-74
2022/05/27 09:09:57;;;;;;;13.75;2.75;;;;;;;15.15;100.00;100244.75;4956430;28;20039;-72
2022/05/27 09:12:38;;;;;;;10.38;1.85;;;;;;;13.27;100.00;100388.63;4954777;28;20018;-72
2022/05/27 09:15:32;;;;;;;7.25;1.10;;;;;;;11.74;100.00;100379.19;4954711;28;20037;-72
2022/05/27 09:18:27;;;;;;;3.67;0.63;;;;;;;11.21;100.00;100594.66;4974058;28;20039;-72
2022/05/27 09:20:58;;;;;;;2.95;0.57;;;;;;;10.74;100.00;100691.50;4959053;28;20042;-72
2022/05/27 09:23:48;;;;;;;3.58;0.60;;;;;;;9.89;100.00;100715.53;4962941;28;20439;-72
2022/05/27 09:26:32;;;;;;;7.00;1.23;;;;;;;9.86;100.00;100772.69;4964245;28;20037;-72
2022/05/27 09:29:24;;;;;;;2.35;0.70;;;;;;;10.72;100.00;100885.75;4963470;28;20057;-72
2022/05/27 09:31:54;;;;;;;3.60;0.73;;;;;;;11.62;100.00;100883.34;4959723;28;20062;-72
2022/05/27 09:34:25;;;;;;;1.70;0.60;;;;;;;12.35;100.00;100788.78;4961137;28;20074;-72
2022/05/27 09:36:54;;;;;;;2.45;0.80;;;;;;;12.38;100.00;100692.03;4949552;28;20045;-73
2022/05/27 09:39:22;;;;;;;5.32;1.38;;;;;;;12.80;100.00;100588.13;4959112;28;20484;-72
2022/05/27 09:42:03;;;;;;;10.65;1.40;;;;;;;13.65;100.00;100627.19;4958663;28;20162;-72
2022/05/27 09:44:41;;;;;;;13.63;1.92;;;;;;;13.93;100.00;100514.66;4960518;28;20073;-73
2022/05/27 09:47:06;;;;;;;14.18;2.85;;;;;;;15.04;100.00;100668.22;4962292;28;20070;-73
2022/05/27 09:49:32;;;;;;;8.13;2.10;;;;;;;14.76;100.00;100491.66;4959252;28;20055;-73
2022/05/27 09:51:59;;;;;;;9.13;2.20;;;;;;;15.67;100.00;100567.88;4964887;28;20045;-74
2022/05/27 09:54:44;;;;;;;12.07;2.47;;;;;;;15.53;100.00;100435.97;4962674;28;20070;-74
2022/05/27 09:57:10;;;;;;;7.35;2.30;;;;;;;16.52;100.00;100465.94;4961877;28;20327;-73
2022/05/27 09:59:40;;;;;;;9.00;2.43;;;;;;;15.90;100.00;100431.13;4958896;28;20062;-72
2022/05/27 10:02:34;;;;;;;13.52;2.92;;;;;;;15.31;100.00;100481.03;4965095;28;20073;-72
2022/05/27 10:05:30;;;;;;;5.93;2.17;;;;;;;14.03;100.00;100401.59;4974940;28;20046;-73
2022/05/27 10:07:59;;;;;;;8.73;2.10;;;;;;;13.58;100.00;100586.03;4975104;28;20039;-72
2022/05/27 10:10:34;;;;;;;17.30;2.67;;;;;;;12.86;100.00;100606.19;4956638;28;20477;-74
2022/05/27 10:13:34;;;;;;;14.35;3.58;;;;;;;12.40;100.00;100587.44;4979560;28;20039;-76
2022/05/27 10:16:11;;;;;;;17.08;2.65;;;;;;;12.41;100.00;100697.06;4967366;28;20035;-72
2022/05/27 10:18:38;;;;;;;19.10;3.65;;;;;;;12.40;100.00;100732.03;4959244;28;20436;-73
2022/05/27 10:21:16;;;;;;;18.38;4.25;;;;;;;12.80;100.00;100808.66;4967170;28;20026;-74
2022/05/27 10:23:45;;;;;;;15.65;2.67;;;;;;;13.60;100.00;100852.25;4958961;28;20631;-74
2022/05/27 10:26:24;;;;;;;19.73;2.65;;;;;;;13.36;100.00;100740.63;4967562;28;20026;-73
2022/05/27 10:29:04;;;;;;;17.58;3.83;;;;;;;13.04;100.00;100718.41;4968740;28;20038;-73
2022/05/27 10:31:30;;;;;;;18.73;3.50;;;;;;;12.78;100.00;100733.00;4960882;28;20042;-72
2022/05/27 10:33:56;;;;;;;17.98;2.97;;;;;;;12.29;100.00;100714.53;4978739;28;20023;-72
2022/05/27 10:36:50;;;;;;;20.15;3.08;;;;;;;11.70;100.00;100740.75;4957679;28;20027;-72
2022/05/27 10:39:45;;;;;;;18.88;3.35;;;;;;;12.21;100.00;100841.19;4957032;28;20117;-72
2022/05/27 10:42:24;;;;;;;17.52;3.35;;;;;;;11.80;100.00;100816.31;4957833;28;20471;-72
2022/05/27 10:45:15;;;;;;;20.75;3.35;;;;;;;11.33;100.00;100793.75;4960427;28;20035;-70
2022/05/27 10:48:12;;;;;;;14.57;2.20;;;;;;;11.38;100.00;100842.22;4958770;28;20035;-71
2022/05/27 10:51:00;;;;;;;16.80;2.70;;;;;;;11.10;100.00;100782.06;4963872;28;20126;-72
2022/05/27 10:53:53;;;;;;;15.20;3.85;;;;;;;11.83;100.00;100830.19;4964800;28;20537;-72
2022/05/27 10:56:24;;;;;;;18.80;3.53;;;;;;;13.09;100.00;100816.03;4962125;28;20081;-74
2022/05/27 11:02:05;;;;;;;11.98;2.40;;;;;;;14.44;100.00;100788.47;4964234;28;20041;-74
2022/05/27 11:05:11;;;;;;;11.15;2.50;;;;;;;13.46;100.00;100634.78;4963514;28;20039;-74
2022/05/27 11:08:18;;;;;;;19.40;3.33;;;;;;;12.74;100.00;100669.25;4959985;28;20035;-74
2022/05/27 11:10:48;;;;;;;16.45;3.40;;;;;;;12.18;100.00;100723.75;4965110;28;20053;-73
2022/05/27 11:16:26;;;;;;;7.75;1.58;;;;;;;10.07;100.00;100864.84;4957061;28;20042;-71
2022/05/27 11:19:10;;;;;;;13.70;3.08;;;;;;;9.83;100.00;100897.50;4973033;28;20134;-71
2022/05/27 11:21:53;;;;;;;7.40;1.40;;;;;;;9.90;100.00;100925.22;4974154;28;20182;-71
2022/05/27 11:24:51;;;;;;;6.88;1.45;;;;;;;11.45;100.00;100945.78;4964767;28;20069;-72
2022/05/27 11:27:25;;;;;;;9.38;1.75;;;;;;;12.12;100.00;100897.56;4902393;28;20044;-71
2022/05/27 11:29:57;;;;;;;7.00;1.30;;;;;;;11.83;100.00;100848.06;4978496;28;20054;-72
2022/05/27 11:32:53;;;;;;;8.60;1.50;;;;;;;11.67;100.00;100858.78;4960681;28;20619;-73
2022/05/27 11:35:37;;;;;;;7.47;1.40;;;;;;;13.19;100.00;100879.31;4972575;28;20030;-72
2022/05/27 11:38:42;;;;;;;12.07;2.15;;;;;;;13.28;100.00;100789.81;4970558;28;20500;-72
2022/05/27 11:41:19;;;;;;;11.07;2.33;;;;;;;13.77;100.00;100781.34;4967985;28;20041;-75
2022/05/27 11:44:24;;;;;;;13.30;3.70;;;;;;;13.46;100.00;100699.16;4967341;28;20053;-72
2022/05/27 11:47:11;;;;;;;;;;;;;;;12.59;100.00;100683.38;4965150;28;20102;-74
2022/05/27 11:50:09;;;;;;;14.52;2.40;;;;;;;13.15;100.00;100752.00;4957751;28;19925;-74
2022/05/27 11:52:47;;;;;;;12.70;2.45;;;;;;;12.61;100.00;100732.25;4962380;28;20035;-72
2022/05/27 11:55:33;;;;;;;12.43;3.50;;;;;;;13.04;100.00;100756.78;4958650;28;20121;-74
2022/05/27 11:58:20;;;;;;;20.73;2.75;;;;;;;12.95;100.00;100723.00;4977445;28;20049;-74
2022/05/27 12:00:54;;;;;;;19.85;2.65;;;;;;;14.39;100.00;100774.78;4963900;28;20059;-74
2022/05/27 12:03:52;;;;;;;16.10;3.25;;;;;;;15.31;100.00;100693.50;4966306;28;20038;-72